sensor_id;sensor_type;location;lat;lon;timestamp;P1;durP1;ratioP1;P2;durP2;ratioP2
30133;SDS011;16946;49.984;10.672;2022-07-10T00:00:23;5.27;;;3.57;;
30133;SDS011;16946;49.984;10.672;2022-07-10T00:00:53;5.77;;;4.73;;
30133;SDS011;16946;49.984;10.672;2022-07-10T00:01:24;4.10;;;3.50;;
30133;SDS011;16946;49.984;10.672;2022-07-10T00:01:54;3.73;;;3.37;;
30133;SDS011;16946;49.984;10.672;2022-07-10T00:02:25;3.83;;;3.43;;
30133;SDS011;16946;49.984;10.672;2022-07-10T00:02:56;3.43;;;3.13;;
30133;SDS011;16946;49.984;10.672;2022-07-10T00:03:26;5.33;;;3.40;;
30133;SDS011;16946;49.984;10.672;2022-07-10T00:03:57;3.67;;;3.33;;
30133;SDS011;16946;49.984;10.672;2022-07-10T00:04:28;4.97;;;4.57;;
30133;SDS011;16946;49.984;10.672;2022-07-10T00:04:58;14.17;;;12.83;;
30133;SDS011;16946;49.984;10.672;2022-07-10T00:05:29;16.47;;;14.87;;
30133;SDS011;16946;49.984;10.672;2022-07-10T00:06:00;7.37;;;6.27;;
30133;SDS011;16946;49.984;10.672;2022-07-10T00:06:31;5.38;;;4.68;;
30133;SDS011;16946;49.984;10.672;2022-07-10T00:07:01;6.00;;;3.37;;
30133;SDS011;16946;49.984;10.672;2022-07-10T00:07:33;4.50;;;3.47;;
30133;SDS011;16946;49.984;10.672;2022-07-10T00:08:04;7.00;;;3.30;;
30133;SDS011;16946;49.984;10.672;2022-07-10T00:08:35;3.27;;;2.97;;
30133;SDS011;16946;49.984;10.672;2022-07-10T00:09:05;4.10;;;3.50;;
30133;SDS011;16946;49.984;10.672;2022-07-10T00:09:36;16.60;;;14.83;;
30133;SDS011;16946;49.984;10.672;2022-07-10T00:10:06;14.97;;;13.33;;
30133;SDS011;16946;49.984;10.672;2022-07-10T00:10:37;11.50;;;10.37;;
30133;SDS011;16946;49.984;10.672;2022-07-10T00:11:08;4.17;;;3.80;;
30133;SDS011;16946;49.984;10.672;2022-07-10T00:11:39;3.97;;;3.58;;
30133;SDS011;16946;49.984;10.672;2022-07-10T00:12:10;4.32;;;3.00;;
30133;SDS011;16946;49.984;10.672;2022-07-10T00:12:41;3.77;;;3.20;;
30133;SDS011;16946;49.984;10.672;2022-07-10T00:13:12;10.63;;;9.37;;
30133;SDS011;16946;49.984;10.672;2022-07-10T00:13:43;5.80;;;5.23;;
30133;SDS011;16946;49.984;10.672;2022-07-10T00:14:13;6.00;;;5.43;;
30133;SDS011;16946;49.984;10.672;2022-07-10T00:14:44;12.07;;;10.82;;
30133;SDS011;16946;49.984;10.672;2022-07-10T00:15:15;8.57;;;7.77;;
30133;SDS011;16946;49.984;10.672;2022-07-10T00:15:46;11.48;;;10.38;;
30133;SDS011;16946;49.984;10.672;2022-07-10T00:16:17;5.73;;;5.13;;
30133;SDS011;16946;49.984;10.672;2022-07-10T00:16:48;5.27;;;3.73;;
30133;SDS011;16946;49.984;10.672;2022-07-10T00:17:18;6.77;;;5.23;;
30133;SDS011;16946;49.984;10.672;2022-07-10T00:17:49;4.20;;;3.80;;
30133;SDS011;16946;49.984;10.672;2022-07-10T00:18:20;4.00;;;3.60;;
30133;SDS011;16946;49.984;10.672;2022-07-10T00:18:50;4.03;;;3.63;;
30133;SDS011;16946;49.984;10.672;2022-07-10T00:19:21;9.07;;;8.17;;
30133;SDS011;16946;49.984;10.672;2022-07-10T00:19:51;6.73;;;5.80;;
30133;SDS011;16946;49.984;10.672;2022-07-10T00:20:22;4.40;;;4.00;;
30133;SDS011;16946;49.984;10.672;2022-07-10T00:20:52;4.20;;;3.83;;
30133;SDS011;16946;49.984;10.672;2022-07-10T00:21:23;6.53;;;5.90;;
30133;SDS011;16946;49.984;10.672;2022-07-10T00:21:54;4.80;;;3.50;;
30133;SDS011;16946;49.984;10.672;2022-07-10T00:22:24;3.73;;;3.33;;
30133;SDS011;16946;49.984;10.672;2022-07-10T00:22:55;3.60;;;3.30;;
30133;SDS011;16946;49.984;10.672;2022-07-10T00:23:26;4.73;;;3.17;;
30133;SDS011;16946;49.984;10.672;2022-07-10T00:23:56;5.63;;;3.10;;
30133;SDS011;16946;49.984;10.672;2022-07-10T00:24:27;4.40;;;3.57;;
30133;SDS011;16946;49.984;10.672;2022-07-10T00:24:57;3.70;;;3.33;;
30133;SDS011;16946;49.984;10.672;2022-07-10T00:25:28;3.67;;;2.87;;
30133;SDS011;16946;49.984;10.672;2022-07-10T00:26:00;5.40;;;4.00;;
30133;SDS011;16946;49.984;10.672;2022-07-10T00:26:30;3.90;;;3.27;;
30133;SDS011;16946;49.984;10.672;2022-07-10T00:27:01;3.27;;;2.97;;
30133;SDS011;16946;49.984;10.672;2022-07-10T00:27:31;3.80;;;2.77;;
30133;SDS011;16946;49.984;10.672;2022-07-10T00:28:02;6.23;;;2.90;;
30133;SDS011;16946;49.984;10.672;2022-07-10T00:28:34;3.10;;;2.80;;
30133;SDS011;16946;49.984;10.672;2022-07-10T00:29:06;3.20;;;2.75;;
30133;SDS011;16946;49.984;10.672;2022-07-10T00:29:38;3.33;;;2.88;;
30133;SDS011;16946;49.984;10.672;2022-07-10T00:30:09;3.03;;;2.63;;
30133;SDS011;16946;49.984;10.672;2022-07-10T00:30:40;3.25;;;2.95;;
30133;SDS011;16946;49.984;10.672;2022-07-10T00:31:11;4.15;;;3.10;;
30133;SDS011;16946;49.984;10.672;2022-07-10T00:31:42;4.57;;;3.27;;
30133;SDS011;16946;49.984;10.672;2022-07-10T00:32:12;5.00;;;3.17;;
30133;SDS011;16946;49.984;10.672;2022-07-10T00:32:43;5.07;;;2.27;;
30133;SDS011;16946;49.984;10.672;2022-07-10T00:33:14;3.90;;;2.87;;
30133;SDS011;16946;49.984;10.672;2022-07-10T00:33:44;5.63;;;3.80;;
30133;SDS011;16946;49.984;10.672;2022-07-10T00:34:15;4.40;;;3.50;;
30133;SDS011;16946;49.984;10.672;2022-07-10T00:34:45;4.50;;;4.10;;
30133;SDS011;16946;49.984;10.672;2022-07-10T00:35:16;3.63;;;2.70;;
30133;SDS011;16946;49.984;10.672;2022-07-10T00:35:46;3.50;;;2.40;;
30133;SDS011;16946;49.984;10.672;2022-07-10T00:36:17;3.07;;;2.67;;
30133;SDS011;16946;49.984;10.672;2022-07-10T00:36:47;7.13;;;2.60;;
30133;SDS011;16946;49.984;10.672;2022-07-10T00:37:18;3.33;;;2.50;;
30133;SDS011;16946;49.984;10.672;2022-07-10T00:37:51;2.63;;;2.30;;
30133;SDS011;16946;49.984;10.672;2022-07-10T00:38:21;2.80;;;2.17;;
30133;SDS011;16946;49.984;10.672;2022-07-10T00:38:52;4.07;;;2.50;;
30133;SDS011;16946;49.984;10.672;2022-07-10T00:39:22;3.47;;;2.50;;
30133;SDS011;16946;49.984;10.672;2022-07-10T00:39:53;2.23;;;2.03;;
30133;SDS011;16946;49.984;10.672;2022-07-10T00:40:24;3.10;;;2.33;;
30133;SDS011;16946;49.984;10.672;2022-07-10T00:40:54;3.63;;;2.40;;
30133;SDS011;16946;49.984;10.672;2022-07-10T00:41:25;3.07;;;2.13;;
30133;SDS011;16946;49.984;10.672;2022-07-10T00:42:05;2.77;;;2.13;;
30133;SDS011;16946;49.984;10.672;2022-07-10T00:42:39;3.95;;;2.65;;
30133;SDS011;16946;49.984;10.672;2022-07-10T00:43:10;4.03;;;2.43;;
30133;SDS011;16946;49.984;10.672;2022-07-10T00:43:59;3.23;;;2.50;;
30133;SDS011;16946;49.984;10.672;2022-07-10T00:44:30;3.88;;;2.28;;
30133;SDS011;16946;49.984;10.672;2022-07-10T00:45:01;3.03;;;2.20;;
30133;SDS011;16946;49.984;10.672;2022-07-10T00:45:31;4.17;;;1.87;;
30133;SDS011;16946;49.984;10.672;2022-07-10T00:46:02;3.97;;;2.50;;
30133;SDS011;16946;49.984;10.672;2022-07-10T00:46:32;4.60;;;2.07;;
30133;SDS011;16946;49.984;10.672;2022-07-10T00:47:04;3.67;;;2.20;;
30133;SDS011;16946;49.984;10.672;2022-07-10T00:47:35;3.67;;;2.05;;
30133;SDS011;16946;49.984;10.672;2022-07-10T00:48:06;3.83;;;1.90;;
30133;SDS011;16946;49.984;10.672;2022-07-10T00:48:36;3.97;;;2.70;;
30133;SDS011;16946;49.984;10.672;2022-07-10T00:49:07;3.90;;;2.10;;
30133;SDS011;16946;49.984;10.672;2022-07-10T00:49:38;4.53;;;2.37;;
30133;SDS011;16946;49.984;10.672;2022-07-10T00:50:09;3.55;;;1.90;;
30133;SDS011;16946;49.984;10.672;2022-07-10T00:50:40;3.50;;;2.17;;
30133;SDS011;16946;49.984;10.672;2022-07-10T00:51:12;5.30;;;2.25;;
30133;SDS011;16946;49.984;10.672;2022-07-10T00:51:44;2.97;;;2.30;;
30133;SDS011;16946;49.984;10.672;2022-07-10T00:52:15;3.77;;;1.90;;
30133;SDS011;16946;49.984;10.672;2022-07-10T00:52:47;4.38;;;2.03;;
30133;SDS011;16946;49.984;10.672;2022-07-10T00:53:17;5.63;;;2.47;;
30133;SDS011;16946;49.984;10.672;2022-07-10T00:53:48;5.83;;;2.47;;
30133;SDS011;16946;49.984;10.672;2022-07-10T00:54:19;3.87;;;1.83;;
30133;SDS011;16946;49.984;10.672;2022-07-10T00:54:50;3.80;;;2.10;;
30133;SDS011;16946;49.984;10.672;2022-07-10T00:55:21;3.43;;;2.10;;
30133;SDS011;16946;49.984;10.672;2022-07-10T00:55:51;2.47;;;1.93;;
30133;SDS011;16946;49.984;10.672;2022-07-10T00:56:23;4.60;;;2.20;;
30133;SDS011;16946;49.984;10.672;2022-07-10T00:56:56;4.18;;;2.10;;
30133;SDS011;16946;49.984;10.672;2022-07-10T00:57:27;4.03;;;1.80;;
30133;SDS011;16946;49.984;10.672;2022-07-10T00:57:58;5.03;;;1.90;;
30133;SDS011;16946;49.984;10.672;2022-07-10T00:58:29;2.03;;;1.50;;
30133;SDS011;16946;49.984;10.672;2022-07-10T00:58:59;5.13;;;2.20;;
30133;SDS011;16946;49.984;10.672;2022-07-10T00:59:31;4.63;;;1.80;;
30133;SDS011;16946;49.984;10.672;2022-07-10T01:00:02;5.03;;;1.93;;
30133;SDS011;16946;49.984;10.672;2022-07-10T01:00:34;3.88;;;1.90;;
30133;SDS011;16946;49.984;10.672;2022-07-10T01:01:07;4.65;;;2.17;;
30133;SDS011;16946;49.984;10.672;2022-07-10T01:01:38;4.50;;;2.10;;
30133;SDS011;16946;49.984;10.672;2022-07-10T01:02:09;3.03;;;1.77;;
30133;SDS011;16946;49.984;10.672;2022-07-10T01:02:41;4.03;;;1.70;;
30133;SDS011;16946;49.984;10.672;2022-07-10T01:03:12;3.08;;;1.90;;
30133;SDS011;16946;49.984;10.672;2022-07-10T01:03:43;4.13;;;2.00;;
30133;SDS011;16946;49.984;10.672;2022-07-10T01:04:16;2.58;;;1.85;;
30133;SDS011;16946;49.984;10.672;2022-07-10T01:04:47;4.85;;;1.80;;
30133;SDS011;16946;49.984;10.672;2022-07-10T01:05:17;3.10;;;1.87;;
30133;SDS011;16946;49.984;10.672;2022-07-10T01:05:48;4.27;;;1.90;;
30133;SDS011;16946;49.984;10.672;2022-07-10T01:06:18;3.97;;;1.93;;
30133;SDS011;16946;49.984;10.672;2022-07-10T01:06:49;4.00;;;1.80;;
30133;SDS011;16946;49.984;10.672;2022-07-10T01:07:20;4.17;;;1.90;;
30133;SDS011;16946;49.984;10.672;2022-07-10T01:07:50;3.27;;;1.97;;
30133;SDS011;16946;49.984;10.672;2022-07-10T01:08:21;4.07;;;2.10;;
30133;SDS011;16946;49.984;10.672;2022-07-10T01:08:51;4.80;;;1.70;;
30133;SDS011;16946;49.984;10.672;2022-07-10T01:09:22;3.57;;;1.77;;
30133;SDS011;16946;49.984;10.672;2022-07-10T01:09:52;3.97;;;1.53;;
30133;SDS011;16946;49.984;10.672;2022-07-10T01:10:23;3.47;;;1.83;;
30133;SDS011;16946;49.984;10.672;2022-07-10T01:10:54;4.53;;;1.83;;
30133;SDS011;16946;49.984;10.672;2022-07-10T01:11:25;4.10;;;1.47;;
30133;SDS011;16946;49.984;10.672;2022-07-10T01:11:56;2.53;;;1.87;;
30133;SDS011;16946;49.984;10.672;2022-07-10T01:12:29;3.80;;;1.77;;
30133;SDS011;16946;49.984;10.672;2022-07-10T01:13:01;3.22;;;1.80;;
30133;SDS011;16946;49.984;10.672;2022-07-10T01:13:32;4.37;;;1.80;;
30133;SDS011;16946;49.984;10.672;2022-07-10T01:14:02;6.10;;;2.13;;
30133;SDS011;16946;49.984;10.672;2022-07-10T01:14:34;3.17;;;1.77;;
30133;SDS011;16946;49.984;10.672;2022-07-10T01:15:05;5.43;;;1.65;;
30133;SDS011;16946;49.984;10.672;2022-07-10T01:15:37;2.42;;;1.70;;
30133;SDS011;16946;49.984;10.672;2022-07-10T01:16:08;3.20;;;1.63;;
30133;SDS011;16946;49.984;10.672;2022-07-10T01:16:38;5.83;;;1.93;;
30133;SDS011;16946;49.984;10.672;2022-07-10T01:17:09;4.27;;;1.87;;
30133;SDS011;16946;49.984;10.672;2022-07-10T01:17:41;3.65;;;1.80;;
30133;SDS011;16946;49.984;10.672;2022-07-10T01:18:12;3.70;;;1.70;;
30133;SDS011;16946;49.984;10.672;2022-07-10T01:18:43;2.50;;;1.50;;
30133;SDS011;16946;49.984;10.672;2022-07-10T01:19:13;7.67;;;2.57;;
30133;SDS011;16946;49.984;10.672;2022-07-10T01:19:44;5.83;;;1.70;;
30133;SDS011;16946;49.984;10.672;2022-07-10T01:20:15;4.43;;;2.10;;
30133;SDS011;16946;49.984;10.672;2022-07-10T01:20:46;2.53;;;1.70;;
30133;SDS011;16946;49.984;10.672;2022-07-10T01:22:01;3.42;;;1.60;;
30133;SDS011;16946;49.984;10.672;2022-07-10T01:22:32;9.53;;;2.00;;
30133;SDS011;16946;49.984;10.672;2022-07-10T01:23:03;3.27;;;2.00;;
30133;SDS011;16946;49.984;10.672;2022-07-10T01:23:33;4.90;;;1.83;;
30133;SDS011;16946;49.984;10.672;2022-07-10T01:24:07;4.33;;;2.00;;
30133;SDS011;16946;49.984;10.672;2022-07-10T01:24:39;4.18;;;1.90;;
30133;SDS011;16946;49.984;10.672;2022-07-10T01:25:09;3.23;;;1.80;;
30133;SDS011;16946;49.984;10.672;2022-07-10T01:25:41;5.85;;;1.90;;
30133;SDS011;16946;49.984;10.672;2022-07-10T01:26:11;4.53;;;2.03;;
30133;SDS011;16946;49.984;10.672;2022-07-10T01:26:42;3.93;;;1.80;;
30133;SDS011;16946;49.984;10.672;2022-07-10T01:27:12;4.93;;;1.57;;
30133;SDS011;16946;49.984;10.672;2022-07-10T01:27:43;3.73;;;1.60;;
30133;SDS011;16946;49.984;10.672;2022-07-10T01:28:14;3.77;;;1.37;;
30133;SDS011;16946;49.984;10.672;2022-07-10T01:28:49;4.38;;;1.70;;
30133;SDS011;16946;49.984;10.672;2022-07-10T01:29:21;2.97;;;1.65;;
30133;SDS011;16946;49.984;10.672;2022-07-10T01:29:52;4.03;;;1.67;;
30133;SDS011;16946;49.984;10.672;2022-07-10T01:30:24;5.50;;;1.80;;
30133;SDS011;16946;49.984;10.672;2022-07-10T01:30:55;3.50;;;1.67;;
30133;SDS011;16946;49.984;10.672;2022-07-10T01:31:26;3.90;;;1.80;;
30133;SDS011;16946;49.984;10.672;2022-07-10T01:31:57;2.83;;;1.60;;
30133;SDS011;16946;49.984;10.672;2022-07-10T01:32:37;3.33;;;1.70;;
30133;SDS011;16946;49.984;10.672;2022-07-10T01:33:09;4.00;;;1.95;;
30133;SDS011;16946;49.984;10.672;2022-07-10T01:33:40;2.90;;;1.40;;
30133;SDS011;16946;49.984;10.672;2022-07-10T01:34:11;3.15;;;1.60;;
30133;SDS011;16946;49.984;10.672;2022-07-10T01:34:42;2.40;;;1.70;;
30133;SDS011;16946;49.984;10.672;2022-07-10T01:35:12;4.13;;;1.63;;
30133;SDS011;16946;49.984;10.672;2022-07-10T01:35:43;3.87;;;1.73;;
30133;SDS011;16946;49.984;10.672;2022-07-10T01:36:14;4.13;;;1.80;;
30133;SDS011;16946;49.984;10.672;2022-07-10T01:36:45;4.50;;;1.63;;
30133;SDS011;16946;49.984;10.672;2022-07-10T01:37:15;3.10;;;1.73;;
30133;SDS011;16946;49.984;10.672;2022-07-10T01:37:46;5.20;;;1.63;;
30133;SDS011;16946;49.984;10.672;2022-07-10T01:38:16;6.67;;;1.93;;
30133;SDS011;16946;49.984;10.672;2022-07-10T01:38:47;2.83;;;1.93;;
30133;SDS011;16946;49.984;10.672;2022-07-10T01:39:21;4.40;;;1.80;;
30133;SDS011;16946;49.984;10.672;2022-07-10T01:39:51;5.27;;;1.60;;
30133;SDS011;16946;49.984;10.672;2022-07-10T01:40:22;4.23;;;1.67;;
30133;SDS011;16946;49.984;10.672;2022-07-10T01:40:52;4.43;;;1.90;;
30133;SDS011;16946;49.984;10.672;2022-07-10T01:41:25;3.47;;;1.80;;
30133;SDS011;16946;49.984;10.672;2022-07-10T01:41:56;3.83;;;1.92;;
30133;SDS011;16946;49.984;10.672;2022-07-10T01:42:27;4.90;;;1.67;;
30133;SDS011;16946;49.984;10.672;2022-07-10T01:42:58;4.23;;;1.40;;
30133;SDS011;16946;49.984;10.672;2022-07-10T01:43:28;3.83;;;1.90;;
30133;SDS011;16946;49.984;10.672;2022-07-10T01:43:59;3.50;;;1.57;;
30133;SDS011;16946;49.984;10.672;2022-07-10T01:44:29;6.80;;;1.93;;
30133;SDS011;16946;49.984;10.672;2022-07-10T01:45:00;4.47;;;1.73;;
30133;SDS011;16946;49.984;10.672;2022-07-10T01:45:32;3.20;;;1.70;;
30133;SDS011;16946;49.984;10.672;2022-07-10T01:46:03;3.13;;;1.70;;
30133;SDS011;16946;49.984;10.672;2022-07-10T01:46:34;4.88;;;1.40;;
30133;SDS011;16946;49.984;10.672;2022-07-10T01:47:04;4.53;;;1.77;;
30133;SDS011;16946;49.984;10.672;2022-07-10T01:47:35;3.77;;;1.80;;
30133;SDS011;16946;49.984;10.672;2022-07-10T01:48:06;4.97;;;1.85;;
30133;SDS011;16946;49.984;10.672;2022-07-10T01:48:37;3.87;;;1.67;;
30133;SDS011;16946;49.984;10.672;2022-07-10T01:49:08;3.67;;;1.50;;
30133;SDS011;16946;49.984;10.672;2022-07-10T01:49:39;3.73;;;1.50;;
30133;SDS011;16946;49.984;10.672;2022-07-10T01:50:10;2.67;;;1.60;;
30133;SDS011;16946;49.984;10.672;2022-07-10T01:50:40;2.37;;;1.67;;
30133;SDS011;16946;49.984;10.672;2022-07-10T01:51:11;5.83;;;1.87;;
30133;SDS011;16946;49.984;10.672;2022-07-10T01:51:42;3.03;;;1.58;;
30133;SDS011;16946;49.984;10.672;2022-07-10T01:52:13;3.77;;;1.80;;
30133;SDS011;16946;49.984;10.672;2022-07-10T01:52:43;4.53;;;1.80;;
30133;SDS011;16946;49.984;10.672;2022-07-10T01:53:14;5.40;;;1.80;;
30133;SDS011;16946;49.984;10.672;2022-07-10T01:53:44;5.50;;;1.77;;
30133;SDS011;16946;49.984;10.672;2022-07-10T01:54:15;4.30;;;1.63;;
30133;SDS011;16946;49.984;10.672;2022-07-10T01:54:46;2.77;;;1.70;;
30133;SDS011;16946;49.984;10.672;2022-07-10T01:55:17;3.88;;;1.42;;
30133;SDS011;16946;49.984;10.672;2022-07-10T01:55:48;4.00;;;1.80;;
30133;SDS011;16946;49.984;10.672;2022-07-10T01:56:18;3.03;;;1.50;;
30133;SDS011;16946;49.984;10.672;2022-07-10T01:56:49;3.17;;;1.60;;
30133;SDS011;16946;49.984;10.672;2022-07-10T01:57:20;3.03;;;1.53;;
30133;SDS011;16946;49.984;10.672;2022-07-10T01:57:50;4.50;;;1.60;;
30133;SDS011;16946;49.984;10.672;2022-07-10T01:58:21;3.83;;;1.50;;
30133;SDS011;16946;49.984;10.672;2022-07-10T01:58:51;4.33;;;1.50;;
30133;SDS011;16946;49.984;10.672;2022-07-10T01:59:22;2.67;;;1.30;;
30133;SDS011;16946;49.984;10.672;2022-07-10T01:59:53;2.97;;;1.40;;
30133;SDS011;16946;49.984;10.672;2022-07-10T02:00:23;5.03;;;1.67;;
30133;SDS011;16946;49.984;10.672;2022-07-10T02:00:54;2.73;;;1.60;;
30133;SDS011;16946;49.984;10.672;2022-07-10T02:01:25;3.23;;;1.60;;
30133;SDS011;16946;49.984;10.672;2022-07-10T02:01:55;5.50;;;1.73;;
30133;SDS011;16946;49.984;10.672;2022-07-10T02:02:26;3.80;;;1.73;;
30133;SDS011;16946;49.984;10.672;2022-07-10T02:02:56;4.90;;;1.53;;
30133;SDS011;16946;49.984;10.672;2022-07-10T02:03:45;3.47;;;1.70;;
30133;SDS011;16946;49.984;10.672;2022-07-10T02:04:34;2.97;;;1.63;;
30133;SDS011;16946;49.984;10.672;2022-07-10T02:05:11;2.85;;;1.50;;
30133;SDS011;16946;49.984;10.672;2022-07-10T02:05:42;5.37;;;1.80;;
30133;SDS011;16946;49.984;10.672;2022-07-10T02:06:12;2.00;;;1.40;;
30133;SDS011;16946;49.984;10.672;2022-07-10T02:06:43;3.40;;;1.40;;
30133;SDS011;16946;49.984;10.672;2022-07-10T02:07:15;4.15;;;1.45;;
30133;SDS011;16946;49.984;10.672;2022-07-10T02:07:46;3.38;;;1.42;;
30133;SDS011;16946;49.984;10.672;2022-07-10T02:08:17;3.73;;;1.60;;
30133;SDS011;16946;49.984;10.672;2022-07-10T02:08:47;3.37;;;1.50;;
30133;SDS011;16946;49.984;10.672;2022-07-10T02:09:18;5.17;;;1.70;;
30133;SDS011;16946;49.984;10.672;2022-07-10T02:09:49;6.73;;;1.40;;
30133;SDS011;16946;49.984;10.672;2022-07-10T02:10:20;2.63;;;1.40;;
30133;SDS011;16946;49.984;10.672;2022-07-10T02:10:50;7.37;;;2.33;;
30133;SDS011;16946;49.984;10.672;2022-07-10T02:11:21;4.77;;;1.50;;
30133;SDS011;16946;49.984;10.672;2022-07-10T02:11:51;4.50;;;1.73;;
30133;SDS011;16946;49.984;10.672;2022-07-10T02:12:22;4.33;;;1.77;;
30133;SDS011;16946;49.984;10.672;2022-07-10T02:12:52;3.03;;;1.50;;
30133;SDS011;16946;49.984;10.672;2022-07-10T02:13:23;3.63;;;1.67;;
30133;SDS011;16946;49.984;10.672;2022-07-10T02:13:57;3.83;;;1.50;;
30133;SDS011;16946;49.984;10.672;2022-07-10T02:14:27;4.17;;;1.60;;
30133;SDS011;16946;49.984;10.672;2022-07-10T02:14:58;3.83;;;1.70;;
30133;SDS011;16946;49.984;10.672;2022-07-10T02:15:30;2.17;;;1.70;;
30133;SDS011;16946;49.984;10.672;2022-07-10T02:16:00;4.83;;;1.73;;
30133;SDS011;16946;49.984;10.672;2022-07-10T02:16:31;4.23;;;1.47;;
30133;SDS011;16946;49.984;10.672;2022-07-10T02:17:02;2.87;;;1.50;;
30133;SDS011;16946;49.984;10.672;2022-07-10T02:17:33;3.65;;;1.70;;
30133;SDS011;16946;49.984;10.672;2022-07-10T02:18:04;2.97;;;1.70;;
30133;SDS011;16946;49.984;10.672;2022-07-10T02:18:34;3.47;;;1.40;;
30133;SDS011;16946;49.984;10.672;2022-07-10T02:19:05;4.50;;;2.17;;
30133;SDS011;16946;49.984;10.672;2022-07-10T02:19:35;2.67;;;1.80;;
30133;SDS011;16946;49.984;10.672;2022-07-10T02:20:06;3.73;;;1.60;;
30133;SDS011;16946;49.984;10.672;2022-07-10T02:20:39;3.67;;;1.40;;
30133;SDS011;16946;49.984;10.672;2022-07-10T02:21:10;3.67;;;1.43;;
30133;SDS011;16946;49.984;10.672;2022-07-10T02:21:41;5.40;;;1.57;;
30133;SDS011;16946;49.984;10.672;2022-07-10T02:22:11;3.83;;;2.00;;
30133;SDS011;16946;49.984;10.672;2022-07-10T02:22:42;3.93;;;1.50;;
30133;SDS011;16946;49.984;10.672;2022-07-10T02:23:12;4.13;;;1.73;;
30133;SDS011;16946;49.984;10.672;2022-07-10T02:23:43;3.23;;;1.60;;
30133;SDS011;16946;49.984;10.672;2022-07-10T02:24:14;5.43;;;1.73;;
30133;SDS011;16946;49.984;10.672;2022-07-10T02:24:44;6.90;;;1.80;;
30133;SDS011;16946;49.984;10.672;2022-07-10T02:25:15;3.87;;;1.70;;
30133;SDS011;16946;49.984;10.672;2022-07-10T02:25:45;4.90;;;1.77;;
30133;SDS011;16946;49.984;10.672;2022-07-10T02:26:16;6.33;;;1.93;;
30133;SDS011;16946;49.984;10.672;2022-07-10T02:26:46;4.10;;;1.87;;
30133;SDS011;16946;49.984;10.672;2022-07-10T02:27:17;4.87;;;1.30;;
30133;SDS011;16946;49.984;10.672;2022-07-10T02:27:48;3.20;;;1.60;;
30133;SDS011;16946;49.984;10.672;2022-07-10T02:28:18;4.57;;;2.10;;
30133;SDS011;16946;49.984;10.672;2022-07-10T02:28:49;5.63;;;1.80;;
30133;SDS011;16946;49.984;10.672;2022-07-10T02:29:20;4.47;;;1.70;;
30133;SDS011;16946;49.984;10.672;2022-07-10T02:29:53;4.35;;;1.60;;
30133;SDS011;16946;49.984;10.672;2022-07-10T02:30:23;4.23;;;1.80;;
30133;SDS011;16946;49.984;10.672;2022-07-10T02:30:54;5.60;;;1.80;;
30133;SDS011;16946;49.984;10.672;2022-07-10T02:31:24;3.80;;;2.10;;
30133;SDS011;16946;49.984;10.672;2022-07-10T02:31:55;3.43;;;1.80;;
30133;SDS011;16946;49.984;10.672;2022-07-10T02:32:25;6.60;;;2.00;;
30133;SDS011;16946;49.984;10.672;2022-07-10T02:32:56;4.50;;;2.00;;
30133;SDS011;16946;49.984;10.672;2022-07-10T02:33:27;4.03;;;1.70;;
30133;SDS011;16946;49.984;10.672;2022-07-10T02:33:57;4.47;;;1.90;;
30133;SDS011;16946;49.984;10.672;2022-07-10T02:34:28;4.43;;;1.80;;
30133;SDS011;16946;49.984;10.672;2022-07-10T02:34:59;4.88;;;1.90;;
30133;SDS011;16946;49.984;10.672;2022-07-10T02:35:30;5.07;;;1.80;;
30133;SDS011;16946;49.984;10.672;2022-07-10T02:36:00;2.47;;;1.60;;
30133;SDS011;16946;49.984;10.672;2022-07-10T02:36:31;2.67;;;1.47;;
30133;SDS011;16946;49.984;10.672;2022-07-10T02:37:01;3.77;;;1.77;;
30133;SDS011;16946;49.984;10.672;2022-07-10T02:37:32;3.63;;;1.77;;
30133;SDS011;16946;49.984;10.672;2022-07-10T02:38:02;3.33;;;1.23;;
30133;SDS011;16946;49.984;10.672;2022-07-10T02:38:33;2.00;;;1.37;;
30133;SDS011;16946;49.984;10.672;2022-07-10T02:39:04;3.33;;;1.70;;
30133;SDS011;16946;49.984;10.672;2022-07-10T02:39:35;4.75;;;1.85;;
30133;SDS011;16946;49.984;10.672;2022-07-10T02:40:06;6.53;;;1.73;;
30133;SDS011;16946;49.984;10.672;2022-07-10T02:40:37;3.03;;;1.75;;
30133;SDS011;16946;49.984;10.672;2022-07-10T02:41:08;4.47;;;1.40;;
30133;SDS011;16946;49.984;10.672;2022-07-10T02:41:38;3.07;;;1.70;;
30133;SDS011;16946;49.984;10.672;2022-07-10T02:42:10;4.65;;;1.60;;
30133;SDS011;16946;49.984;10.672;2022-07-10T02:42:41;4.30;;;1.40;;
30133;SDS011;16946;49.984;10.672;2022-07-10T02:43:12;2.63;;;1.60;;
30133;SDS011;16946;49.984;10.672;2022-07-10T02:43:42;4.60;;;1.70;;
30133;SDS011;16946;49.984;10.672;2022-07-10T02:44:13;2.47;;;1.60;;
30133;SDS011;16946;49.984;10.672;2022-07-10T02:44:43;3.20;;;1.50;;
30133;SDS011;16946;49.984;10.672;2022-07-10T02:45:14;6.57;;;1.90;;
30133;SDS011;16946;49.984;10.672;2022-07-10T02:45:45;5.40;;;1.70;;
30133;SDS011;16946;49.984;10.672;2022-07-10T02:46:15;5.33;;;1.63;;
30133;SDS011;16946;49.984;10.672;2022-07-10T02:46:46;3.80;;;1.70;;
30133;SDS011;16946;49.984;10.672;2022-07-10T02:47:16;6.90;;;1.80;;
30133;SDS011;16946;49.984;10.672;2022-07-10T02:47:47;2.67;;;1.60;;
30133;SDS011;16946;49.984;10.672;2022-07-10T02:48:17;2.70;;;1.67;;
30133;SDS011;16946;49.984;10.672;2022-07-10T02:48:48;3.33;;;1.80;;
30133;SDS011;16946;49.984;10.672;2022-07-10T02:49:19;3.60;;;1.67;;
30133;SDS011;16946;49.984;10.672;2022-07-10T02:49:49;5.03;;;1.90;;
30133;SDS011;16946;49.984;10.672;2022-07-10T02:50:20;3.90;;;1.70;;
30133;SDS011;16946;49.984;10.672;2022-07-10T02:50:50;2.87;;;1.47;;
30133;SDS011;16946;49.984;10.672;2022-07-10T02:51:22;4.25;;;1.65;;
30133;SDS011;16946;49.984;10.672;2022-07-10T02:51:52;2.60;;;1.40;;
30133;SDS011;16946;49.984;10.672;2022-07-10T02:52:23;2.93;;;1.57;;
30133;SDS011;16946;49.984;10.672;2022-07-10T02:52:53;3.97;;;1.63;;
30133;SDS011;16946;49.984;10.672;2022-07-10T02:53:24;4.73;;;1.57;;
30133;SDS011;16946;49.984;10.672;2022-07-10T02:53:54;2.70;;;1.70;;
30133;SDS011;16946;49.984;10.672;2022-07-10T02:54:25;4.93;;;1.70;;
30133;SDS011;16946;49.984;10.672;2022-07-10T02:54:56;2.83;;;1.60;;
30133;SDS011;16946;49.984;10.672;2022-07-10T02:55:27;2.40;;;1.55;;
30133;SDS011;16946;49.984;10.672;2022-07-10T02:55:57;3.43;;;1.50;;
30133;SDS011;16946;49.984;10.672;2022-07-10T02:56:28;4.33;;;1.53;;
30133;SDS011;16946;49.984;10.672;2022-07-10T02:56:59;2.47;;;1.40;;
30133;SDS011;16946;49.984;10.672;2022-07-10T02:57:29;4.10;;;1.60;;
30133;SDS011;16946;49.984;10.672;2022-07-10T02:58:00;2.50;;;1.20;;
30133;SDS011;16946;49.984;10.672;2022-07-10T02:58:31;3.53;;;1.13;;
30133;SDS011;16946;49.984;10.672;2022-07-10T02:59:02;3.97;;;1.30;;
30133;SDS011;16946;49.984;10.672;2022-07-10T02:59:32;1.80;;;1.10;;
30133;SDS011;16946;49.984;10.672;2022-07-10T03:00:03;4.50;;;1.93;;
30133;SDS011;16946;49.984;10.672;2022-07-10T03:00:35;2.45;;;1.40;;
30133;SDS011;16946;49.984;10.672;2022-07-10T03:01:06;2.35;;;1.23;;
30133;SDS011;16946;49.984;10.672;2022-07-10T03:01:37;3.10;;;1.30;;
30133;SDS011;16946;49.984;10.672;2022-07-10T03:02:07;2.23;;;1.23;;
30133;SDS011;16946;49.984;10.672;2022-07-10T03:02:38;3.30;;;1.40;;
30133;SDS011;16946;49.984;10.672;2022-07-10T03:03:08;2.07;;;1.37;;
30133;SDS011;16946;49.984;10.672;2022-07-10T03:03:39;3.10;;;1.50;;
30133;SDS011;16946;49.984;10.672;2022-07-10T03:04:11;3.60;;;1.40;;
30133;SDS011;16946;49.984;10.672;2022-07-10T03:04:41;3.83;;;1.43;;
30133;SDS011;16946;49.984;10.672;2022-07-10T03:05:12;3.60;;;1.40;;